sensor_id;sensor_type;location;lat;lon;timestamp;P1;durP1;ratioP1;P2;durP2;ratioP2
55931;SDS011;41837;55.700;37.984;2023-02-14T00:00:18;6.95;;;1.98;;
55931;SDS011;41837;55.700;37.984;2023-02-14T00:02:47;4.57;;;1.85;;
55931;SDS011;41837;55.700;37.984;2023-02-14T00:05:13;4.13;;;1.33;;
55931;SDS011;41837;55.700;37.984;2023-02-14T00:07:39;4.60;;;1.60;;
55931;SDS011;41837;55.700;37.984;2023-02-14T00:10:07;5.70;;;1.60;;
55931;SDS011;41837;55.700;37.984;2023-02-14T00:12:34;5.82;;;1.77;;
55931;SDS011;41837;55.700;37.984;2023-02-14T00:15:00;6.65;;;1.60;;
55931;SDS011;41837;55.700;37.984;2023-02-14T00:17:45;6.53;;;1.52;;
55931;SDS011;41837;55.700;37.984;2023-02-14T00:20:12;5.40;;;1.75;;
55931;SDS011;41837;55.700;37.984;2023-02-14T00:22:38;4.35;;;1.75;;
55931;SDS011;41837;55.700;37.984;2023-02-14T00:25:05;4.43;;;1.60;;
55931;SDS011;41837;55.700;37.984;2023-02-14T00:27:31;7.82;;;1.90;;
55931;SDS011;41837;55.700;37.984;2023-02-14T00:30:00;7.07;;;1.77;;
55931;SDS011;41837;55.700;37.984;2023-02-14T00:32:29;7.28;;;1.77;;
55931;SDS011;41837;55.700;37.984;2023-02-14T00:34:55;8.43;;;1.75;;
55931;SDS011;41837;55.700;37.984;2023-02-14T00:37:21;5.28;;;2.00;;
55931;SDS011;41837;55.700;37.984;2023-02-14T00:39:51;5.90;;;1.70;;
55931;SDS011;41837;55.700;37.984;2023-02-14T00:42:17;8.82;;;2.22;;
55931;SDS011;41837;55.700;37.984;2023-02-14T00:44:44;9.27;;;1.73;;
55931;SDS011;41837;55.700;37.984;2023-02-14T00:47:10;7.65;;;1.80;;
55931;SDS011;41837;55.700;37.984;2023-02-14T00:49:36;3.45;;;1.73;;
55931;SDS011;41837;55.700;37.984;2023-02-14T00:52:02;6.03;;;1.95;;
55931;SDS011;41837;55.700;37.984;2023-02-14T00:54:29;7.78;;;1.90;;
55931;SDS011;41837;55.700;37.984;2023-02-14T00:56:57;7.53;;;2.00;;
55931;SDS011;41837;55.700;37.984;2023-02-14T00:59:24;4.38;;;1.60;;
55931;SDS011;41837;55.700;37.984;2023-02-14T01:01:54;4.72;;;1.63;;
55931;SDS011;41837;55.700;37.984;2023-02-14T01:04:20;4.88;;;1.65;;
55931;SDS011;41837;55.700;37.984;2023-02-14T01:06:46;5.10;;;1.80;;
55931;SDS011;41837;55.700;37.984;2023-02-14T01:09:12;7.38;;;1.50;;
55931;SDS011;41837;55.700;37.984;2023-02-14T01:11:39;3.70;;;1.40;;
55931;SDS011;41837;55.700;37.984;2023-02-14T01:14:05;6.10;;;1.70;;
55931;SDS011;41837;55.700;37.984;2023-02-14T01:16:31;5.47;;;1.38;;
55931;SDS011;41837;55.700;37.984;2023-02-14T01:18:58;6.70;;;2.03;;
55931;SDS011;41837;55.700;37.984;2023-02-14T01:21:29;6.28;;;1.63;;
55931;SDS011;41837;55.700;37.984;2023-02-14T01:23:59;6.35;;;1.67;;
55931;SDS011;41837;55.700;37.984;2023-02-14T01:26:29;4.13;;;1.27;;
55931;SDS011;41837;55.700;37.984;2023-02-14T01:28:59;6.68;;;1.95;;
55931;SDS011;41837;55.700;37.984;2023-02-14T01:31:28;6.50;;;2.03;;
55931;SDS011;41837;55.700;37.984;2023-02-14T01:33:56;4.43;;;1.52;;
55931;SDS011;41837;55.700;37.984;2023-02-14T01:36:27;6.70;;;2.05;;
55931;SDS011;41837;55.700;37.984;2023-02-14T01:38:56;8.02;;;2.03;;
55931;SDS011;41837;55.700;37.984;2023-02-14T01:41:25;8.35;;;1.88;;
55931;SDS011;41837;55.700;37.984;2023-02-14T01:44:04;5.13;;;1.80;;
55931;SDS011;41837;55.700;37.984;2023-02-14T01:46:34;5.85;;;1.73;;
55931;SDS011;41837;55.700;37.984;2023-02-14T01:51:55;7.15;;;2.00;;
55931;SDS011;41837;55.700;37.984;2023-02-14T01:54:28;6.43;;;2.13;;
55931;SDS011;41837;55.700;37.984;2023-02-14T01:56:59;8.80;;;2.13;;
55931;SDS011;41837;55.700;37.984;2023-02-14T01:59:31;6.30;;;2.15;;
55931;SDS011;41837;55.700;37.984;2023-02-14T02:02:02;10.98;;;3.20;;
55931;SDS011;41837;55.700;37.984;2023-02-14T02:04:33;5.50;;;2.05;;
55931;SDS011;41837;55.700;37.984;2023-02-14T02:07:07;6.88;;;1.85;;
55931;SDS011;41837;55.700;37.984;2023-02-14T02:12:38;7.32;;;2.20;;
55931;SDS011;41837;55.700;37.984;2023-02-14T02:15:05;8.10;;;1.85;;
55931;SDS011;41837;55.700;37.984;2023-02-14T02:23:35;7.80;;;1.83;;
55931;SDS011;41837;55.700;37.984;2023-02-14T02:49:04;7.07;;;1.65;;
55931;SDS011;41837;55.700;37.984;2023-02-14T02:52:22;7.18;;;1.80;;
55931;SDS011;41837;55.700;37.984;2023-02-14T02:57:53;8.35;;;1.80;;
55931;SDS011;41837;55.700;37.984;2023-02-14T03:00:21;4.47;;;1.77;;
55931;SDS011;41837;55.700;37.984;2023-02-14T03:02:50;9.88;;;1.92;;
55931;SDS011;41837;55.700;37.984;2023-02-14T03:05:39;6.40;;;1.80;;
55931;SDS011;41837;55.700;37.984;2023-02-14T03:08:06;9.73;;;1.88;;
55931;SDS011;41837;55.700;37.984;2023-02-14T03:10:34;8.10;;;2.22;;
55931;SDS011;41837;55.700;37.984;2023-02-14T03:16:04;5.65;;;1.95;;
55931;SDS011;41837;55.700;37.984;2023-02-14T03:35:11;3.42;;;2.00;;
55931;SDS011;41837;55.700;37.984;2023-02-14T03:37:54;4.05;;;1.95;;
55931;SDS011;41837;55.700;37.984;2023-02-14T03:43:16;6.93;;;2.20;;
55931;SDS011;41837;55.700;37.984;2023-02-14T03:45:49;5.80;;;2.10;;
55931;SDS011;41837;55.700;37.984;2023-02-14T03:48:21;8.93;;;2.20;;
55931;SDS011;41837;55.700;37.984;2023-02-14T03:50:49;8.20;;;2.38;;
55931;SDS011;41837;55.700;37.984;2023-02-14T03:53:20;6.45;;;2.10;;
55931;SDS011;41837;55.700;37.984;2023-02-14T03:55:54;8.00;;;2.40;;
55931;SDS011;41837;55.700;37.984;2023-02-14T03:58:30;6.93;;;2.70;;
55931;SDS011;41837;55.700;37.984;2023-02-14T04:01:11;6.45;;;2.05;;
55931;SDS011;41837;55.700;37.984;2023-02-14T04:03:59;6.18;;;1.70;;
55931;SDS011;41837;55.700;37.984;2023-02-14T04:06:26;8.50;;;2.33;;
55931;SDS011;41837;55.700;37.984;2023-02-14T04:08:52;7.40;;;1.70;;
55931;SDS011;41837;55.700;37.984;2023-02-14T04:11:18;5.07;;;1.85;;
55931;SDS011;41837;55.700;37.984;2023-02-14T04:13:45;7.82;;;1.75;;
55931;SDS011;41837;55.700;37.984;2023-02-14T04:16:10;6.13;;;1.90;;
55931;SDS011;41837;55.700;37.984;2023-02-14T04:18:37;3.63;;;1.48;;
55931;SDS011;41837;55.700;37.984;2023-02-14T04:21:22;8.55;;;1.77;;
55931;SDS011;41837;55.700;37.984;2023-02-14T04:23:48;3.63;;;1.58;;
55931;SDS011;41837;55.700;37.984;2023-02-14T04:26:15;5.85;;;1.92;;
55931;SDS011;41837;55.700;37.984;2023-02-14T04:28:41;3.70;;;1.48;;
55931;SDS011;41837;55.700;37.984;2023-02-14T04:31:07;5.80;;;1.88;;
55931;SDS011;41837;55.700;37.984;2023-02-14T04:33:35;5.93;;;1.50;;
55931;SDS011;41837;55.700;37.984;2023-02-14T04:36:03;7.28;;;1.83;;
55931;SDS011;41837;55.700;37.984;2023-02-14T04:38:30;4.80;;;1.95;;
55931;SDS011;41837;55.700;37.984;2023-02-14T04:40:57;3.58;;;1.65;;
55931;SDS011;41837;55.700;37.984;2023-02-14T04:43:24;5.65;;;1.80;;
55931;SDS011;41837;55.700;37.984;2023-02-14T04:45:50;3.22;;;1.52;;
55931;SDS011;41837;55.700;37.984;2023-02-14T04:48:16;4.50;;;1.70;;
55931;SDS011;41837;55.700;37.984;2023-02-14T04:50:42;5.60;;;2.08;;
55931;SDS011;41837;55.700;37.984;2023-02-14T04:53:08;5.35;;;2.00;;
55931;SDS011;41837;55.700;37.984;2023-02-14T04:55:34;4.45;;;1.80;;
55931;SDS011;41837;55.700;37.984;2023-02-14T04:58:00;5.30;;;1.83;;
55931;SDS011;41837;55.700;37.984;2023-02-14T05:00:26;4.80;;;1.70;;
55931;SDS011;41837;55.700;37.984;2023-02-14T05:02:52;5.63;;;1.80;;
55931;SDS011;41837;55.700;37.984;2023-02-14T05:05:18;6.05;;;1.67;;
55931;SDS011;41837;55.700;37.984;2023-02-14T05:07:44;6.57;;;1.60;;
55931;SDS011;41837;55.700;37.984;2023-02-14T05:10:12;5.30;;;1.63;;
55931;SDS011;41837;55.700;37.984;2023-02-14T05:12:38;4.57;;;2.10;;
55931;SDS011;41837;55.700;37.984;2023-02-14T05:15:04;4.60;;;1.90;;
55931;SDS011;41837;55.700;37.984;2023-02-14T05:17:30;4.72;;;2.17;;
55931;SDS011;41837;55.700;37.984;2023-02-14T05:19:56;4.93;;;1.90;;
55931;SDS011;41837;55.700;37.984;2023-02-14T05:22:23;3.65;;;1.55;;
55931;SDS011;41837;55.700;37.984;2023-02-14T05:24:49;4.85;;;1.95;;
55931;SDS011;41837;55.700;37.984;2023-02-14T05:27:15;6.10;;;2.10;;
55931;SDS011;41837;55.700;37.984;2023-02-14T05:29:41;3.88;;;2.05;;
55931;SDS011;41837;55.700;37.984;2023-02-14T05:32:08;6.18;;;2.60;;
55931;SDS011;41837;55.700;37.984;2023-02-14T05:34:34;3.55;;;1.67;;
55931;SDS011;41837;55.700;37.984;2023-02-14T05:37:00;7.35;;;2.00;;
55931;SDS011;41837;55.700;37.984;2023-02-14T05:39:28;5.78;;;2.05;;
55931;SDS011;41837;55.700;37.984;2023-02-14T05:42:01;3.92;;;1.42;;
55931;SDS011;41837;55.700;37.984;2023-02-14T05:44:27;2.40;;;1.15;;
55931;SDS011;41837;55.700;37.984;2023-02-14T05:46:53;2.88;;;0.90;;
55931;SDS011;41837;55.700;37.984;2023-02-14T05:49:20;5.55;;;1.50;;
55931;SDS011;41837;55.700;37.984;2023-02-14T05:51:46;3.35;;;1.13;;
55931;SDS011;41837;55.700;37.984;2023-02-14T05:54:12;4.72;;;1.30;;
55931;SDS011;41837;55.700;37.984;2023-02-14T05:56:38;3.35;;;1.27;;
55931;SDS011;41837;55.700;37.984;2023-02-14T05:59:04;5.95;;;1.65;;
55931;SDS011;41837;55.700;37.984;2023-02-14T06:01:30;4.32;;;1.50;;
55931;SDS011;41837;55.700;37.984;2023-02-14T06:03:57;2.75;;;1.23;;
55931;SDS011;41837;55.700;37.984;2023-02-14T06:06:23;5.65;;;1.70;;
55931;SDS011;41837;55.700;37.984;2023-02-14T06:08:49;4.22;;;1.30;;
55931;SDS011;41837;55.700;37.984;2023-02-14T06:11:15;3.33;;;1.20;;
55931;SDS011;41837;55.700;37.984;2023-02-14T06:13:41;6.18;;;1.55;;
55931;SDS011;41837;55.700;37.984;2023-02-14T06:16:07;4.13;;;1.35;;
55931;SDS011;41837;55.700;37.984;2023-02-14T06:18:33;3.38;;;1.48;;
55931;SDS011;41837;55.700;37.984;2023-02-14T06:20:59;5.60;;;1.60;;
55931;SDS011;41837;55.700;37.984;2023-02-14T06:23:26;3.55;;;1.35;;
55931;SDS011;41837;55.700;37.984;2023-02-14T06:25:52;3.05;;;1.35;;
55931;SDS011;41837;55.700;37.984;2023-02-14T06:28:18;4.97;;;1.70;;
55931;SDS011;41837;55.700;37.984;2023-02-14T06:30:45;4.28;;;1.60;;
55931;SDS011;41837;55.700;37.984;2023-02-14T06:33:12;4.10;;;1.77;;
55931;SDS011;41837;55.700;37.984;2023-02-14T06:35:38;3.65;;;1.50;;
55931;SDS011;41837;55.700;37.984;2023-02-14T06:38:04;5.28;;;1.70;;
55931;SDS011;41837;55.700;37.984;2023-02-14T06:40:30;3.33;;;1.30;;
55931;SDS011;41837;55.700;37.984;2023-02-14T06:42:59;4.70;;;1.65;;
55931;SDS011;41837;55.700;37.984;2023-02-14T06:45:25;4.72;;;1.88;;
55931;SDS011;41837;55.700;37.984;2023-02-14T06:47:52;3.30;;;1.40;;
55931;SDS011;41837;55.700;37.984;2023-02-14T06:50:18;2.65;;;1.40;;
55931;SDS011;41837;55.700;37.984;2023-02-14T06:52:45;4.60;;;1.90;;
55931;SDS011;41837;55.700;37.984;2023-02-14T06:55:11;3.90;;;1.50;;
55931;SDS011;41837;55.700;37.984;2023-02-14T06:57:38;6.38;;;1.55;;
55931;SDS011;41837;55.700;37.984;2023-02-14T07:00:05;4.85;;;1.83;;
55931;SDS011;41837;55.700;37.984;2023-02-14T07:02:32;6.07;;;1.77;;
55931;SDS011;41837;55.700;37.984;2023-02-14T07:04:58;5.38;;;1.35;;
55931;SDS011;41837;55.700;37.984;2023-02-14T07:07:24;4.18;;;1.23;;
55931;SDS011;41837;55.700;37.984;2023-02-14T07:09:50;3.85;;;1.77;;
55931;SDS011;41837;55.700;37.984;2023-02-14T07:12:16;3.03;;;1.48;;
55931;SDS011;41837;55.700;37.984;2023-02-14T07:14:43;3.55;;;1.40;;
55931;SDS011;41837;55.700;37.984;2023-02-14T07:17:09;4.45;;;1.48;;
55931;SDS011;41837;55.700;37.984;2023-02-14T07:19:35;3.50;;;1.45;;
55931;SDS011;41837;55.700;37.984;2023-02-14T07:22:01;2.00;;;1.02;;
55931;SDS011;41837;55.700;37.984;2023-02-14T07:24:28;3.72;;;1.27;;
55931;SDS011;41837;55.700;37.984;2023-02-14T07:26:54;4.43;;;1.10;;
55931;SDS011;41837;55.700;37.984;2023-02-14T07:29:20;4.18;;;1.40;;
55931;SDS011;41837;55.700;37.984;2023-02-14T07:31:46;4.30;;;1.45;;
55931;SDS011;41837;55.700;37.984;2023-02-14T07:34:12;5.30;;;1.17;;
55931;SDS011;41837;55.700;37.984;2023-02-14T07:36:38;4.95;;;1.40;;
55931;SDS011;41837;55.700;37.984;2023-02-14T07:39:05;4.63;;;1.58;;
55931;SDS011;41837;55.700;37.984;2023-02-14T07:41:31;2.58;;;0.98;;
55931;SDS011;41837;55.700;37.984;2023-02-14T07:43:57;4.03;;;1.42;;
55931;SDS011;41837;55.700;37.984;2023-02-14T07:46:24;4.72;;;1.45;;
55931;SDS011;41837;55.700;37.984;2023-02-14T07:48:50;3.45;;;1.77;;
55931;SDS011;41837;55.700;37.984;2023-02-14T07:51:16;4.38;;;1.60;;
55931;SDS011;41837;55.700;37.984;2023-02-14T07:53:43;7.13;;;1.48;;
55931;SDS011;41837;55.700;37.984;2023-02-14T07:56:09;3.45;;;1.20;;
55931;SDS011;41837;55.700;37.984;2023-02-14T07:58:35;3.05;;;1.38;;
55931;SDS011;41837;55.700;37.984;2023-02-14T08:01:01;5.88;;;1.30;;
55931;SDS011;41837;55.700;37.984;2023-02-14T08:03:27;3.35;;;1.40;;
55931;SDS011;41837;55.700;37.984;2023-02-14T08:05:53;3.75;;;1.50;;
55931;SDS011;41837;55.700;37.984;2023-02-14T08:08:24;2.67;;;1.17;;
55931;SDS011;41837;55.700;37.984;2023-02-14T08:10:52;2.40;;;1.13;;
55931;SDS011;41837;55.700;37.984;2023-02-14T08:13:18;4.20;;;1.20;;
55931;SDS011;41837;55.700;37.984;2023-02-14T08:15:45;1.80;;;1.40;;
55931;SDS011;41837;55.700;37.984;2023-02-14T08:18:30;3.70;;;1.40;;
55931;SDS011;41837;55.700;37.984;2023-02-14T08:20:58;5.50;;;1.48;;
55931;SDS011;41837;55.700;37.984;2023-02-14T08:23:25;4.45;;;1.40;;
55931;SDS011;41837;55.700;37.984;2023-02-14T08:25:51;4.88;;;1.63;;
55931;SDS011;41837;55.700;37.984;2023-02-14T08:28:18;4.68;;;1.70;;
55931;SDS011;41837;55.700;37.984;2023-02-14T08:30:45;2.80;;;1.73;;
55931;SDS011;41837;55.700;37.984;2023-02-14T08:33:12;2.95;;;1.17;;
55931;SDS011;41837;55.700;37.984;2023-02-14T08:35:38;7.38;;;1.83;;
55931;SDS011;41837;55.700;37.984;2023-02-14T08:38:04;4.45;;;1.85;;
55931;SDS011;41837;55.700;37.984;2023-02-14T08:40:30;3.63;;;1.55;;
55931;SDS011;41837;55.700;37.984;2023-02-14T08:42:56;4.72;;;1.70;;
55931;SDS011;41837;55.700;37.984;2023-02-14T08:45:22;3.75;;;1.70;;
55931;SDS011;41837;55.700;37.984;2023-02-14T08:47:48;4.65;;;1.73;;
55931;SDS011;41837;55.700;37.984;2023-02-14T08:50:16;3.97;;;1.70;;
55931;SDS011;41837;55.700;37.984;2023-02-14T08:52:43;5.38;;;1.63;;
55931;SDS011;41837;55.700;37.984;2023-02-14T08:55:10;6.28;;;1.70;;
55931;SDS011;41837;55.700;37.984;2023-02-14T08:57:38;6.05;;;1.73;;
55931;SDS011;41837;55.700;37.984;2023-02-14T09:00:04;4.47;;;1.85;;
55931;SDS011;41837;55.700;37.984;2023-02-14T09:02:31;5.35;;;1.88;;
55931;SDS011;41837;55.700;37.984;2023-02-14T09:04:58;4.38;;;2.20;;
55931;SDS011;41837;55.700;37.984;2023-02-14T09:07:25;5.00;;;1.80;;
55931;SDS011;41837;55.700;37.984;2023-02-14T09:09:51;3.65;;;2.03;;
55931;SDS011;41837;55.700;37.984;2023-02-14T09:12:17;5.13;;;2.13;;
55931;SDS011;41837;55.700;37.984;2023-02-14T09:14:43;8.90;;;2.28;;
55931;SDS011;41837;55.700;37.984;2023-02-14T09:17:13;4.30;;;2.05;;
55931;SDS011;41837;55.700;37.984;2023-02-14T09:19:41;5.95;;;2.35;;
55931;SDS011;41837;55.700;37.984;2023-02-14T09:22:07;2.90;;;1.75;;
55931;SDS011;41837;55.700;37.984;2023-02-14T09:24:35;11.55;;;2.42;;
55931;SDS011;41837;55.700;37.984;2023-02-14T09:27:02;5.55;;;2.72;;
55931;SDS011;41837;55.700;37.984;2023-02-14T09:29:29;5.47;;;2.45;;
55931;SDS011;41837;55.700;37.984;2023-02-14T09:31:56;5.43;;;2.30;;
55931;SDS011;41837;55.700;37.984;2023-02-14T09:34:26;6.45;;;2.83;;
55931;SDS011;41837;55.700;37.984;2023-02-14T09:36:52;5.82;;;2.67;;
55931;SDS011;41837;55.700;37.984;2023-02-14T09:39:38;7.32;;;2.40;;
55931;SDS011;41837;55.700;37.984;2023-02-14T09:53:15;3.95;;;2.05;;
55931;SDS011;41837;55.700;37.984;2023-02-14T09:58:21;4.93;;;2.08;;
55931;SDS011;41837;55.700;37.984;2023-02-14T10:11:51;2.15;;;1.05;;
55931;SDS011;41837;55.700;37.984;2023-02-14T10:14:20;1.85;;;1.23;;
55931;SDS011;41837;55.700;37.984;2023-02-14T10:22:28;5.50;;;1.80;;
55931;SDS011;41837;55.700;37.984;2023-02-14T10:25:18;3.03;;;1.50;;
55931;SDS011;41837;55.700;37.984;2023-02-14T10:27:49;5.75;;;1.55;;
55931;SDS011;41837;55.700;37.984;2023-02-14T10:30:21;5.85;;;2.25;;
55931;SDS011;41837;55.700;37.984;2023-02-14T10:32:49;4.38;;;2.00;;
55931;SDS011;41837;55.700;37.984;2023-02-14T10:44:15;4.50;;;2.20;;
55931;SDS011;41837;55.700;37.984;2023-02-14T10:53:04;4.07;;;2.10;;
55931;SDS011;41837;55.700;37.984;2023-02-14T10:58:22;4.18;;;2.22;;
55931;SDS011;41837;55.700;37.984;2023-02-14T11:01:09;3.65;;;2.08;;
55931;SDS011;41837;55.700;37.984;2023-02-14T11:06:09;4.45;;;2.20;;
55931;SDS011;41837;55.700;37.984;2023-02-14T11:08:37;5.80;;;2.50;;
55931;SDS011;41837;55.700;37.984;2023-02-14T11:16:59;6.93;;;2.83;;
55931;SDS011;41837;55.700;37.984;2023-02-14T11:19:54;6.10;;;2.47;;
55931;SDS011;41837;55.700;37.984;2023-02-14T11:22:33;3.00;;;2.00;;
55931;SDS011;41837;55.700;37.984;2023-02-14T11:25:09;11.60;;;2.50;;
55931;SDS011;41837;55.700;37.984;2023-02-14T11:27:56;6.18;;;2.45;;
55931;SDS011;41837;55.700;37.984;2023-02-14T11:32:58;4.47;;;2.58;;
55931;SDS011;41837;55.700;37.984;2023-02-14T11:35:26;3.30;;;2.20;;
55931;SDS011;41837;55.700;37.984;2023-02-14T11:38:08;5.97;;;2.60;;
55931;SDS011;41837;55.700;37.984;2023-02-14T11:40:54;6.25;;;2.47;;
55931;SDS011;41837;55.700;37.984;2023-02-14T11:43:33;6.25;;;2.47;;
55931;SDS011;41837;55.700;37.984;2023-02-14T11:48:54;6.07;;;2.55;;
55931;SDS011;41837;55.700;37.984;2023-02-14T11:51:30;9.18;;;2.00;;
55931;SDS011;41837;55.700;37.984;2023-02-14T11:54:00;7.35;;;2.33;;
55931;SDS011;41837;55.700;37.984;2023-02-14T11:56:52;4.07;;;2.05;;
55931;SDS011;41837;55.700;37.984;2023-02-14T12:01:49;5.38;;;1.95;;
55931;SDS011;41837;55.700;37.984;2023-02-14T12:04:21;3.75;;;1.50;;
55931;SDS011;41837;55.700;37.984;2023-02-14T12:10:05;4.70;;;1.88;;
55931;SDS011;41837;55.700;37.984;2023-02-14T12:12:59;5.70;;;2.35;;
55931;SDS011;41837;55.700;37.984;2023-02-14T12:24:15;2.80;;;1.55;;
55931;SDS011;41837;55.700;37.984;2023-02-14T12:26:54;3.88;;;1.80;;
55931;SDS011;41837;55.700;37.984;2023-02-14T12:29:43;4.97;;;1.95;;
55931;SDS011;41837;55.700;37.984;2023-02-14T12:32:19;5.60;;;2.17;;
55931;SDS011;41837;55.700;37.984;2023-02-14T12:34:50;3.42;;;1.60;;
55931;SDS011;41837;55.700;37.984;2023-02-14T12:37:33;3.20;;;1.88;;
55931;SDS011;41837;55.700;37.984;2023-02-14T12:40:19;4.38;;;1.58;;
55931;SDS011;41837;55.700;37.984;2023-02-14T12:43:11;5.00;;;2.08;;
55931;SDS011;41837;55.700;37.984;2023-02-14T12:46:10;5.65;;;2.25;;
55931;SDS011;41837;55.700;37.984;2023-02-14T12:57:25;2.90;;;1.65;;
55931;SDS011;41837;55.700;37.984;2023-02-14T13:17:18;3.92;;;2.00;;
55931;SDS011;41837;55.700;37.984;2023-02-14T13:20:05;4.47;;;2.08;;
55931;SDS011;41837;55.700;37.984;2023-02-14T13:22:56;5.05;;;2.25;;
55931;SDS011;41837;55.700;37.984;2023-02-14T13:25:29;3.65;;;2.03;;
55931;SDS011;41837;55.700;37.984;2023-02-14T13:30:35;3.53;;;1.90;;
55931;SDS011;41837;55.700;37.984;2023-02-14T13:33:07;5.05;;;2.00;;
55931;SDS011;41837;55.700;37.984;2023-02-14T13:35:43;3.22;;;1.77;;
55931;SDS011;41837;55.700;37.984;2023-02-14T13:38:10;4.75;;;2.30;;
55931;SDS011;41837;55.700;37.984;2023-02-14T13:40:40;7.13;;;2.40;;
55931;SDS011;41837;55.700;37.984;2023-02-14T13:43:07;3.28;;;1.70;;
55931;SDS011;41837;55.700;37.984;2023-02-14T13:48:03;4.63;;;2.40;;
55931;SDS011;41837;55.700;37.984;2023-02-14T13:50:33;5.07;;;2.22;;
55931;SDS011;41837;55.700;37.984;2023-02-14T13:53:03;5.15;;;2.15;;
55931;SDS011;41837;55.700;37.984;2023-02-14T13:55:34;4.72;;;2.20;;
55931;SDS011;41837;55.700;37.984;2023-02-14T13:58:17;3.75;;;1.77;;
55931;SDS011;41837;55.700;37.984;2023-02-14T14:00:47;2.85;;;1.83;;
55931;SDS011;41837;55.700;37.984;2023-02-14T14:11:12;4.10;;;2.08;;
55931;SDS011;41837;55.700;37.984;2023-02-14T14:14:03;2.78;;;1.30;;
55931;SDS011;41837;55.700;37.984;2023-02-14T14:16:58;3.30;;;1.40;;
55931;SDS011;41837;55.700;37.984;2023-02-14T14:22:01;3.38;;;1.50;;
55931;SDS011;41837;55.700;37.984;2023-02-14T14:24:32;3.13;;;1.65;;
55931;SDS011;41837;55.700;37.984;2023-02-14T14:29:50;4.38;;;1.30;;
55931;SDS011;41837;55.700;37.984;2023-02-14T14:32:34;6.07;;;1.67;;
55931;SDS011;41837;55.700;37.984;2023-02-14T14:35:27;4.35;;;2.10;;
55931;SDS011;41837;55.700;37.984;2023-02-14T14:37:54;3.63;;;1.75;;
55931;SDS011;41837;55.700;37.984;2023-02-14T14:43:23;6.38;;;2.10;;
55931;SDS011;41837;55.700;37.984;2023-02-14T14:46:01;4.72;;;1.70;;
55931;SDS011;41837;55.700;37.984;2023-02-14T14:51:02;4.07;;;2.10;;
55931;SDS011;41837;55.700;37.984;2023-02-14T14:53:33;2.67;;;1.67;;
55931;SDS011;41837;55.700;37.984;2023-02-14T14:56:12;5.10;;;2.10;;
55931;SDS011;41837;55.700;37.984;2023-02-14T15:02:21;6.40;;;2.25;;
55931;SDS011;41837;55.700;37.984;2023-02-14T15:04:51;9.73;;;1.92;;
55931;SDS011;41837;55.700;37.984;2023-02-14T15:07:33;4.47;;;1.95;;
55931;SDS011;41837;55.700;37.984;2023-02-14T15:10:00;6.68;;;2.30;;
55931;SDS011;41837;55.700;37.984;2023-02-14T15:12:28;5.90;;;2.25;;
55931;SDS011;41837;55.700;37.984;2023-02-14T15:15:15;5.25;;;2.30;;
55931;SDS011;41837;55.700;37.984;2023-02-14T15:17:42;4.90;;;2.00;;
55931;SDS011;41837;55.700;37.984;2023-02-14T15:20:13;4.90;;;2.30;;
55931;SDS011;41837;55.700;37.984;2023-02-14T15:22:48;5.38;;;2.15;;
55931;SDS011;41837;55.700;37.984;2023-02-14T15:27:51;8.02;;;2.30;;
55931;SDS011;41837;55.700;37.984;2023-02-14T15:32:44;6.40;;;2.13;;
55931;SDS011;41837;55.700;37.984;2023-02-14T15:35:12;4.47;;;2.13;;
55931;SDS011;41837;55.700;37.984;2023-02-14T15:37:42;3.50;;;1.85;;
55931;SDS011;41837;55.700;37.984;2023-02-14T15:40:20;3.15;;;1.73;;
55931;SDS011;41837;55.700;37.984;2023-02-14T15:42:51;6.95;;;2.35;;
55931;SDS011;41837;55.700;37.984;2023-02-14T15:47:52;4.65;;;2.35;;
55931;SDS011;41837;55.700;37.984;2023-02-14T15:50:26;7.20;;;2.72;;
55931;SDS011;41837;55.700;37.984;2023-02-14T15:53:03;4.50;;;2.60;;
55931;SDS011;41837;55.700;37.984;2023-02-14T15:55:32;4.63;;;2.55;;
55931;SDS011;41837;55.700;37.984;2023-02-14T15:58:03;3.88;;;1.92;;
55931;SDS011;41837;55.700;37.984;2023-02-14T16:00:31;4.07;;;1.90;;
55931;SDS011;41837;55.700;37.984;2023-02-14T16:02:59;5.15;;;2.28;;
55931;SDS011;41837;55.700;37.984;2023-02-14T16:05:30;4.88;;;2.53;;
55931;SDS011;41837;55.700;37.984;2023-02-14T16:08:00;3.33;;;2.10;;
55931;SDS011;41837;55.700;37.984;2023-02-14T16:13:01;5.20;;;2.25;;
55931;SDS011;41837;55.700;37.984;2023-02-14T16:15:38;8.38;;;2.47;;
55931;SDS011;41837;55.700;37.984;2023-02-14T16:21:19;4.10;;;1.88;;
55931;SDS011;41837;55.700;37.984;2023-02-14T16:26:38;5.43;;;2.25;;
55931;SDS011;41837;55.700;37.984;2023-02-14T16:29:06;3.58;;;2.20;;
55931;SDS011;41837;55.700;37.984;2023-02-14T16:31:34;4.00;;;2.00;;
55931;SDS011;41837;55.700;37.984;2023-02-14T16:34:05;5.70;;;2.63;;
55931;SDS011;41837;55.700;37.984;2023-02-14T16:36:37;3.75;;;1.95;;
55931;SDS011;41837;55.700;37.984;2023-02-14T16:39:04;6.53;;;2.40;;
55931;SDS011;41837;55.700;37.984;2023-02-14T16:41:32;5.15;;;2.40;;
55931;SDS011;41837;55.700;37.984;2023-02-14T16:43:58;5.72;;;2.47;;
55931;SDS011;41837;55.700;37.984;2023-02-14T16:46:28;4.72;;;2.22;;
55931;SDS011;41837;55.700;37.984;2023-02-14T16:48:57;3.78;;;1.80;;
55931;SDS011;41837;55.700;37.984;2023-02-14T16:51:27;4.97;;;2.13;;
55931;SDS011;41837;55.700;37.984;2023-02-14T16:53:57;3.78;;;1.95;;
55931;SDS011;41837;55.700;37.984;2023-02-14T16:56:36;3.85;;;2.35;;
55931;SDS011;41837;55.700;37.984;2023-02-14T16:59:07;4.95;;;1.60;;
55931;SDS011;41837;55.700;37.984;2023-02-14T17:01:33;5.60;;;2.20;;
55931;SDS011;41837;55.700;37.984;2023-02-14T17:03:59;5.72;;;2.22;;
55931;SDS011;41837;55.700;37.984;2023-02-14T17:06:25;4.47;;;2.35;;
55931;SDS011;41837;55.700;37.984;2023-02-14T17:08:55;4.97;;;2.28;;
55931;SDS011;41837;55.700;37.984;2023-02-14T17:11:23;4.55;;;2.00;;
55931;SDS011;41837;55.700;37.984;2023-02-14T17:13:51;5.47;;;2.83;;
55931;SDS011;41837;55.700;37.984;2023-02-14T17:16:19;5.53;;;2.60;;
55931;SDS011;41837;55.700;37.984;2023-02-14T17:18:46;4.72;;;2.47;;
55931;SDS011;41837;55.700;37.984;2023-02-14T17:21:15;5.30;;;2.30;;
55931;SDS011;41837;55.700;37.984;2023-02-14T17:23:41;3.70;;;1.73;;
55931;SDS011;41837;55.700;37.984;2023-02-14T17:26:07;5.82;;;2.55;;
55931;SDS011;41837;55.700;37.984;2023-02-14T17:28:35;6.40;;;2.05;;
55931;SDS011;41837;55.700;37.984;2023-02-14T17:31:01;6.45;;;2.25;;
55931;SDS011;41837;55.700;37.984;2023-02-14T17:33:30;4.03;;;1.90;;
55931;SDS011;41837;55.700;37.984;2023-02-14T17:36:06;5.47;;;2.70;;
55931;SDS011;41837;55.700;37.984;2023-02-14T17:38:36;3.70;;;1.85;;
55931;SDS011;41837;55.700;37.984;2023-02-14T17:41:31;4.35;;;2.17;;
55931;SDS011;41837;55.700;37.984;2023-02-14T17:43:56;4.53;;;1.88;;
55931;SDS011;41837;55.700;37.984;2023-02-14T17:46:28;5.50;;;2.30;;
55931;SDS011;41837;55.700;37.984;2023-02-14T17:48:56;3.50;;;1.83;;
55931;SDS011;41837;55.700;37.984;2023-02-14T17:51:23;4.40;;;2.33;;
55931;SDS011;41837;55.700;37.984;2023-02-14T17:53:52;5.18;;;2.20;;
55931;SDS011;41837;55.700;37.984;2023-02-14T17:56:20;4.82;;;1.70;;
55931;SDS011;41837;55.700;37.984;2023-02-14T17:58:49;5.28;;;2.28;;
55931;SDS011;41837;55.700;37.984;2023-02-14T18:01:17;4.70;;;2.40;;
55931;SDS011;41837;55.700;37.984;2023-02-14T18:03:45;4.18;;;1.63;;
55931;SDS011;41837;55.700;37.984;2023-02-14T18:06:12;3.33;;;2.00;;
55931;SDS011;41837;55.700;37.984;2023-02-14T18:08:44;4.47;;;1.83;;
55931;SDS011;41837;55.700;37.984;2023-02-14T18:11:17;5.60;;;2.60;;
55931;SDS011;41837;55.700;37.984;2023-02-14T18:13:45;7.22;;;2.75;;
55931;SDS011;41837;55.700;37.984;2023-02-14T18:16:14;6.63;;;2.22;;